Time;durP1;ratioP1;P1;durP2;ratioP2;P2;SDS_P1;SDS_P2;PMS_P1;PMS_P2;Temp;Humidity;BMP_temperature;BMP_pressure;BME280_temperature;BME280_humidity;BME280_pressure;Samples;Min_cycle;Max_cycle;Signal;HPM_P1;HPM_P2
2020/12/19 00:02:08;;;;;;;2.03;0.40;;;21.80;44.30;;;;;;5047657;28;20028;-44
2020/12/19 00:04:36;;;;;;;1.02;0.32;;;21.80;44.30;;;;;;5048254;28;20078;-48
2020/12/19 00:07:02;;;;;;;1.10;0.35;;;21.70;44.40;;;;;;5045925;28;20048;-48
2020/12/19 00:09:28;;;;;;;1.25;0.40;;;21.70;44.40;;;;;;5047208;28;20029;-45
2020/12/19 00:11:54;;;;;;;1.45;0.35;;;21.70;44.40;;;;;;5047422;28;20473;-44
2020/12/19 00:14:20;;;;;;;1.02;0.50;;;21.70;44.40;;;;;;5049804;28;20028;-47
2020/12/19 00:16:46;;;;;;;0.75;0.30;;;21.70;44.40;;;;;;5045720;28;20029;-45
2020/12/19 00:19:12;;;;;;;1.00;0.50;;;21.70;44.40;;;;;;5048389;28;20085;-45
2020/12/19 00:21:37;;;;;;;0.95;0.35;;;21.70;44.40;;;;;;5042746;28;20535;-47
2020/12/19 00:24:04;;;;;;;0.90;0.50;;;21.70;44.50;;;;;;5026771;28;20013;-47
2020/12/19 00:26:35;;;;;;;1.02;0.30;;;21.70;44.40;;;;;;5045104;28;20041;-48
2020/12/19 00:29:01;;;;;;;2.30;0.43;;;21.60;44.40;;;;;;5029356;28;20115;-47
2020/12/19 00:31:27;;;;;;;1.33;0.35;;;21.60;44.30;;;;;;5049026;28;20028;-47
2020/12/19 00:33:52;;;;;;;1.00;0.50;;;21.60;44.90;;;;;;5030785;28;20017;-46
2020/12/19 00:36:19;;;;;;;1.33;0.43;;;21.60;44.40;;;;;;5047684;28;20021;-47
2020/12/19 00:38:44;;;;;;;0.88;0.40;;;21.60;44.40;;;;;;5039513;28;20059;-48
2020/12/19 00:41:19;;;;;;;0.75;0.22;;;21.60;44.40;;;;;;5048612;28;20021;-45
2020/12/19 00:43:45;;;;;;;1.02;0.43;;;21.50;44.40;;;;;;5044984;28;20028;-47
2020/12/19 00:46:14;;;;;;;1.23;0.47;;;21.50;44.40;;;;;;5048064;28;20401;-47
2020/12/19 00:48:41;;;;;;;1.27;0.30;;;21.50;44.40;;;;;;5048357;28;20078;-46
2020/12/19 00:51:20;;;;;;;0.63;0.40;;;21.50;44.40;;;;;;5047287;28;20029;-47
2020/12/19 00:53:47;;;;;;;0.88;0.30;;;21.50;44.40;;;;;;5045889;28;20060;-47
2020/12/19 00:56:17;;;;;;;0.75;0.30;;;21.50;44.40;;;;;;5044458;28;20044;-47
2020/12/19 00:58:44;;;;;;;2.75;0.50;;;21.50;44.50;;;;;;5030021;28;20028;-46
2020/12/19 01:01:09;;;;;;;1.45;0.50;;;21.40;44.40;;;;;;5029667;28;20012;-46
2020/12/19 01:03:35;;;;;;;1.20;0.40;;;21.40;44.50;;;;;;5028072;28;20100;-45
2020/12/19 01:06:00;;;;;;;1.90;0.47;;;21.40;44.50;;;;;;5044751;28;20014;-45
2020/12/19 01:08:26;;;;;;;0.60;0.30;;;21.40;44.50;;;;;;5047311;28;20025;-45
2020/12/19 01:10:51;;;;;;;1.00;0.40;;;21.40;44.50;;;;;;5045366;28;20029;-46
2020/12/19 01:13:17;;;;;;;1.08;0.50;;;21.40;44.50;;;;;;5048040;28;20016;-43
2020/12/19 01:15:42;;;;;;;1.15;0.30;;;21.40;44.50;;;;;;5045795;28;20043;-45
2020/12/19 01:18:08;;;;;;;0.98;0.32;;;21.40;44.50;;;;;;5047570;28;20032;-45
2020/12/19 01:20:33;;;;;;;1.23;0.32;;;21.30;44.40;;;;;;5044153;28;20079;-45
2020/12/19 01:22:59;;;;;;;0.80;0.40;;;21.30;44.50;;;;;;5046678;28;20076;-46
2020/12/19 01:25:24;;;;;;;1.75;0.40;;;21.30;44.50;;;;;;5046671;28;20029;-46
2020/12/19 01:27:50;;;;;;;1.15;0.45;;;21.30;44.40;;;;;;5046936;28;20058;-44
2020/12/19 01:30:16;;;;;;;0.60;0.30;;;21.40;44.30;;;;;;5046839;28;20057;-45
2020/12/19 01:32:41;;;;;;;0.95;0.30;;;21.40;44.30;;;;;;5043877;28;20028;-49
2020/12/19 01:35:07;;;;;;;0.77;0.28;;;21.30;44.30;;;;;;5047696;28;20035;-45
2020/12/19 01:37:32;;;;;;;1.60;0.55;;;21.40;44.30;;;;;;5047446;28;20483;-46
2020/12/19 01:39:58;;;;;;;0.80;0.30;;;21.30;44.30;;;;;;5045620;28;20025;-49
2020/12/19 01:42:23;;;;;;;1.17;0.50;;;21.30;44.30;;;;;;5043631;28;20037;-46
2020/12/19 01:44:49;;;;;;;1.65;0.38;;;21.30;44.20;;;;;;5030164;28;20021;-46
2020/12/19 01:47:17;;;;;;;0.73;0.25;;;21.30;44.20;;;;;;5038850;28;20021;-45
2020/12/19 01:49:42;;;;;;;1.73;0.65;;;21.30;44.30;;;;;;5028720;28;20037;-47
2020/12/19 01:52:09;;;;;;;0.70;0.32;;;21.30;44.30;;;;;;5027099;28;20504;-47
2020/12/19 01:54:35;;;;;;;0.65;0.30;;;21.20;44.20;;;;;;5043866;28;20462;-42
2020/12/19 01:57:01;;;;;;;0.85;0.30;;;21.30;44.30;;;;;;5030516;28;20493;-46
2020/12/19 01:59:28;;;;;;;0.90;0.35;;;21.30;44.30;;;;;;5045034;28;20049;-47
2020/12/19 02:02:03;;;;;;;1.55;0.32;;;21.20;44.20;;;;;;5044066;28;20750;-46
2020/12/19 02:04:28;;;;;;;0.80;0.28;;;21.20;44.20;;;;;;5040769;28;20024;-47
2020/12/19 02:06:56;;;;;;;0.88;0.40;;;21.20;44.20;;;;;;5047513;28;20044;-46
2020/12/19 02:09:24;;;;;;;1.05;0.38;;;21.20;44.20;;;;;;5027232;28;20033;-48
2020/12/19 02:11:49;;;;;;;0.88;0.25;;;21.20;44.20;;;;;;5045506;28;20017;-46
2020/12/19 02:14:15;;;;;;;0.60;0.30;;;21.20;44.30;;;;;;5046625;28;20107;-46
2020/12/19 02:16:58;;;;;;;1.30;0.40;;;21.20;44.30;;;;;;5044691;28;20095;-45
2020/12/19 02:19:26;;;;;;;2.25;0.30;;;21.20;44.30;;;;;;5028673;28;20031;-46
2020/12/19 02:21:52;;;;;;;0.60;0.20;;;21.10;44.30;;;;;;5044424;28;20028;-45
2020/12/19 02:24:17;;;;;;;0.60;0.32;;;21.10;44.20;;;;;;5045606;28;20021;-46
2020/12/19 02:26:48;;;;;;;0.82;0.32;;;21.10;44.30;;;;;;5045891;28;20020;-47
2020/12/19 02:29:14;;;;;;;1.02;0.30;;;21.20;44.30;;;;;;5047772;28;20029;-46
2020/12/19 02:31:39;;;;;;;3.33;0.50;;;21.10;44.20;;;;;;5041926;28;20029;-48
2020/12/19 02:34:05;;;;;;;0.50;0.30;;;21.10;44.20;;;;;;5043644;28;20087;-48
2020/12/19 02:36:31;;;;;;;0.70;0.40;;;21.10;44.30;;;;;;5043563;28;20393;-47
2020/12/19 02:38:56;;;;;;;0.73;0.20;;;21.10;44.20;;;;;;5044881;28;20021;-45
2020/12/19 02:41:22;;;;;;;1.05;0.20;;;21.10;44.20;;;;;;5028205;28;20370;-47
2020/12/19 02:43:55;;;;;;;0.60;0.30;;;21.10;44.20;;;;;;5028602;28;20033;-45
2020/12/19 02:46:21;;;;;;;0.60;0.40;;;21.10;44.20;;;;;;5046492;28;20044;-45
2020/12/19 02:48:47;;;;;;;0.55;0.20;;;21.00;44.20;;;;;;5037588;28;20060;-45
2020/12/19 02:51:13;;;;;;;0.80;0.30;;;21.10;44.30;;;;;;5048791;28;20582;-46
2020/12/19 02:53:39;;;;;;;0.80;0.20;;;21.00;44.20;;;;;;5048889;28;20417;-45
2020/12/19 02:56:05;;;;;;;0.63;0.20;;;21.00;44.80;;;;;;5047750;28;20017;-46
2020/12/19 02:58:30;;;;;;;0.57;0.28;;;21.00;44.30;;;;;;5050754;28;20039;-48
2020/12/19 03:00:56;;;;;;;2.22;0.55;;;21.00;44.20;;;;;;5049383;28;20029;-47
2020/12/19 03:03:21;;;;;;;0.60;0.40;;;21.00;44.20;;;;;;5050899;28;20017;-44
2020/12/19 03:05:47;;;;;;;0.60;0.25;;;21.00;44.20;;;;;;5043666;28;20147;-48
2020/12/19 03:08:12;;;;;;;0.82;0.30;;;21.00;44.20;;;;;;5050415;28;20028;-45
2020/12/19 03:10:38;;;;;;;0.50;0.30;;;21.00;44.20;;;;;;5042129;28;20052;-45
2020/12/19 03:13:04;;;;;;;1.10;0.30;;;21.00;44.20;;;;;;5049401;28;20098;-45
2020/12/19 03:15:29;;;;;;;0.70;0.40;;;20.90;44.20;;;;;;5039431;28;20031;-45
2020/12/19 03:17:55;;;;;;;0.68;0.22;;;20.90;44.30;;;;;;5037498;28;20029;-43
2020/12/19 03:20:20;;;;;;;0.57;0.20;;;20.90;44.80;;;;;;5050072;28;20074;-45
2020/12/19 03:22:46;;;;;;;0.75;0.30;;;20.90;44.30;;;;;;5048287;28;20381;-48
2020/12/19 03:25:11;;;;;;;0.85;0.30;;;20.90;44.30;;;;;;5049288;28;20029;-46
2020/12/19 03:27:37;;;;;;;0.63;0.20;;;20.90;44.30;;;;;;5046125;28;20016;-47
2020/12/19 03:30:04;;;;;;;0.52;0.32;;;20.90;44.30;;;;;;5054284;28;20025;-47
2020/12/19 03:32:30;;;;;;;0.50;0.22;;;20.90;44.30;;;;;;5046934;28;20065;-43
2020/12/19 03:34:55;;;;;;;0.90;0.30;;;20.80;44.30;;;;;;5046610;28;20064;-48
2020/12/19 03:37:21;;;;;;;0.80;0.30;;;20.90;44.40;;;;;;5049519;28;20024;-48
2020/12/19 03:39:47;;;;;;;0.60;0.38;;;20.80;44.80;;;;;;5046977;28;20029;-48
2020/12/19 03:42:13;;;;;;;0.85;0.40;;;20.90;44.40;;;;;;5031360;28;20116;-44
2020/12/19 03:44:38;;;;;;;0.57;0.20;;;20.90;44.40;;;;;;5050191;28;20100;-44
2020/12/19 03:47:04;;;;;;;0.60;0.32;;;20.80;44.30;;;;;;5048031;28;20029;-46
2020/12/19 03:49:30;;;;;;;0.55;0.30;;;20.80;44.30;;;;;;5039890;28;20036;-47
2020/12/19 03:51:55;;;;;;;0.60;0.30;;;20.80;44.20;;;;;;5049739;28;20029;-43
2020/12/19 03:54:21;;;;;;;0.50;0.20;;;20.80;44.20;;;;;;5047926;28;20029;-44
2020/12/19 03:56:46;;;;;;;0.70;0.30;;;20.80;44.30;;;;;;5048388;28;20090;-47
2020/12/19 03:59:12;;;;;;;0.70;0.30;;;20.80;44.30;;;;;;5049608;28;20083;-45
2020/12/19 04:01:38;;;;;;;0.40;0.17;;;20.80;44.30;;;;;;5047565;28;20031;-46
2020/12/19 04:04:03;;;;;;;0.60;0.22;;;20.80;44.30;;;;;;5030837;28;20021;-44
2020/12/19 04:06:30;;;;;;;0.65;0.40;;;20.80;44.30;;;;;;5048317;28;20089;-44
2020/12/19 04:08:56;;;;;;;0.77;0.20;;;20.80;44.20;;;;;;5049515;28;20108;-48
2020/12/19 04:11:21;;;;;;;0.70;0.28;;;20.70;44.20;;;;;;5049355;28;20072;-45
2020/12/19 04:13:47;;;;;;;0.80;0.25;;;20.80;44.30;;;;;;5045911;28;20072;-47
2020/12/19 04:16:13;;;;;;;0.60;0.20;;;20.70;44.30;;;;;;5047357;28;20017;-45
2020/12/19 04:18:39;;;;;;;2.13;0.30;;;20.70;44.20;;;;;;5049333;28;20494;-44
2020/12/19 04:21:08;;;;;;;1.35;0.30;;;20.70;44.20;;;;;;5031395;28;20037;-47
2020/12/19 04:23:34;;;;;;;0.57;0.32;;;20.70;44.20;;;;;;5048978;28;20048;-45
2020/12/19 04:26:00;;;;;;;0.80;0.22;;;20.70;44.20;;;;;;5046586;28;20024;-46
2020/12/19 04:28:29;;;;;;;0.52;0.25;;;20.70;44.20;;;;;;5027648;28;20017;-48
2020/12/19 04:30:54;;;;;;;0.88;0.35;;;20.70;44.20;;;;;;5048375;28;20029;-47
2020/12/19 04:33:20;;;;;;;0.70;0.30;;;20.70;44.20;;;;;;5042159;28;20036;-46
2020/12/19 04:35:46;;;;;;;0.40;0.20;;;20.70;44.20;;;;;;5047624;28;20355;-47
2020/12/19 04:38:11;;;;;;;0.47;0.20;;;20.70;44.20;;;;;;5030347;28;20173;-43
2020/12/19 04:40:37;;;;;;;0.98;0.30;;;20.70;44.20;;;;;;5046618;28;20394;-46
2020/12/19 04:43:17;;;;;;;0.63;0.20;;;20.70;44.20;;;;;;5044631;28;20029;-46
2020/12/19 04:45:43;;;;;;;0.63;0.20;;;20.70;44.20;;;;;;5046740;28;20021;-47
2020/12/19 04:48:09;;;;;;;0.70;0.40;;;20.70;44.20;;;;;;5048534;28;20092;-46
2020/12/19 04:50:38;;;;;;;0.70;0.20;;;20.70;44.20;;;;;;5033262;28;20045;-42
2020/12/19 04:53:13;;;;;;;0.68;0.22;;;20.70;44.10;;;;;;5022020;28;20369;-44
2020/12/19 04:55:39;;;;;;;0.52;0.28;;;20.60;44.10;;;;;;5043510;28;20427;-46
2020/12/19 04:58:07;;;;;;;0.60;0.30;;;20.70;44.10;;;;;;5049595;28;20028;-44
2020/12/19 05:00:32;;;;;;;0.40;0.20;;;20.70;44.10;;;;;;5047057;28;20036;-46
2020/12/19 05:02:58;;;;;;;0.38;0.20;;;20.60;44.00;;;;;;5030197;28;20024;-45
2020/12/19 05:05:23;;;;;;;1.23;0.35;;;20.60;44.00;;;;;;5048143;28;20112;-48
2020/12/19 05:07:49;;;;;;;0.50;0.22;;;20.60;44.00;;;;;;5047231;28;20100;-46
2020/12/19 05:10:15;;;;;;;0.60;0.30;;;20.60;44.00;;;;;;5040382;28;20022;-46
2020/12/19 05:12:41;;;;;;;0.70;0.30;;;20.60;44.10;;;;;;5047942;28;20537;-47
2020/12/19 05:15:06;;;;;;;0.68;0.30;;;20.60;44.10;;;;;;5044767;28;20031;-44
2020/12/19 05:17:32;;;;;;;0.75;0.30;;;20.60;44.10;;;;;;5047185;28;20104;-43
2020/12/19 05:20:00;;;;;;;0.50;0.35;;;20.60;44.10;;;;;;5047026;28;20029;-48
2020/12/19 05:22:25;;;;;;;0.47;0.22;;;20.60;44.10;;;;;;5043496;28;20044;-49
2020/12/19 05:24:52;;;;;;;0.98;0.30;;;20.60;44.10;;;;;;5031220;28;20393;-44
2020/12/19 05:27:17;;;;;;;0.40;0.20;;;20.50;44.10;;;;;;5044045;28;20101;-45
2020/12/19 05:29:43;;;;;;;1.70;0.30;;;20.50;44.10;;;;;;5013144;28;20032;-46
2020/12/19 05:32:09;;;;;;;0.73;0.40;;;20.60;44.10;;;;;;5046779;28;20033;-41
2020/12/19 05:34:35;;;;;;;0.68;0.30;;;20.50;44.00;;;;;;5048122;28;20108;-44
2020/12/19 05:37:01;;;;;;;1.10;0.32;;;20.50;44.00;;;;;;5029090;28;20048;-47
2020/12/19 05:39:26;;;;;;;1.25;0.32;;;20.50;44.10;;;;;;5048906;28;20087;-47
2020/12/19 05:41:53;;;;;;;0.90;0.25;;;20.50;44.10;;;;;;5046309;28;20473;-44
2020/12/19 05:44:20;;;;;;;0.68;0.30;;;20.50;44.10;;;;;;5046637;28;20027;-46
2020/12/19 05:46:46;;;;;;;0.63;0.20;;;20.50;44.10;;;;;;5026411;28;20092;-47
2020/12/19 05:49:12;;;;;;;0.60;0.32;;;20.50;44.10;;;;;;5051457;28;20496;-48
2020/12/19 05:51:41;;;;;;;0.50;0.20;;;20.50;44.10;;;;;;5042819;28;20056;-46
2020/12/19 05:54:12;;;;;;;1.13;0.40;;;20.50;44.10;;;;;;5047594;28;20036;-46
2020/12/19 05:56:43;;;;;;;0.63;0.20;;;20.50;44.10;;;;;;5046934;28;20021;-48
2020/12/19 05:59:16;;;;;;;0.60;0.30;;;20.50;44.10;;;;;;5045915;28;20057;-43
2020/12/19 06:01:45;;;;;;;0.90;0.40;;;20.50;44.10;;;;;;5039935;28;20280;-46
2020/12/19 06:04:12;;;;;;;0.47;0.20;;;20.50;44.10;;;;;;5032154;28;20024;-47
2020/12/19 06:06:39;;;;;;;0.70;0.40;;;20.50;44.10;;;;;;5046266;28;20393;-48
2020/12/19 06:09:06;;;;;;;0.60;0.20;;;20.50;44.10;;;;;;5028922;28;20021;-46
2020/12/19 06:11:43;;;;;;;1.00;0.35;;;20.50;44.10;;;;;;5044783;28;20025;-47
2020/12/19 06:14:12;;;;;;;1.15;0.30;;;20.40;44.10;;;;;;5043443;28;20064;-46
2020/12/19 06:16:41;;;;;;;0.60;0.20;;;20.40;44.10;;;;;;5041091;28;20405;-48
2020/12/19 06:19:19;;;;;;;0.60;0.20;;;20.40;44.10;;;;;;5020261;28;20017;-47
2020/12/19 06:21:49;;;;;;;0.63;0.30;;;20.40;44.10;;;;;;5045848;28;20474;-45
2020/12/19 06:24:37;;;;;;;0.40;0.20;;;20.40;44.10;;;;;;5045665;28;20454;-43
2020/12/19 06:27:06;;;;;;;2.53;0.40;;;20.40;44.10;;;;;;5016331;28;20040;-47
2020/12/19 06:29:37;;;;;;;1.10;0.30;;;20.40;44.20;;;;;;5041514;28;20077;-47
2020/12/19 06:32:03;;;;;;;0.60;0.30;;;20.40;44.20;;;;;;5048545;28;20112;-45
2020/12/19 06:34:29;;;;;;;0.60;0.30;;;20.40;44.20;;;;;;5054608;28;20028;-45
2020/12/19 06:36:56;;;;;;;0.57;0.30;;;20.30;44.20;;;;;;5053311;28;20048;-43
2020/12/19 06:39:21;;;;;;;0.70;0.43;;;20.30;44.20;;;;;;5049341;28;20098;-47
2020/12/19 06:41:58;;;;;;;1.35;0.30;;;20.40;44.20;;;;;;5049129;28;20198;-45
2020/12/19 06:44:24;;;;;;;1.45;0.28;;;20.30;44.20;;;;;;5036505;28;20037;-45
2020/12/19 06:46:50;;;;;;;0.55;0.30;;;20.30;44.20;;;;;;5034073;28;20035;-46
2020/12/19 06:49:22;;;;;;;0.52;0.22;;;20.30;44.20;;;;;;5050491;28;20067;-47
2020/12/19 06:52:01;;;;;;;;;;;20.30;44.20;;;;;;5053126;28;20102;-44
2020/12/19 06:54:35;;;;;;;1.23;0.40;;;20.30;44.20;;;;;;5052963;28;19905;-46
2020/12/19 06:57:01;;;;;;;0.65;0.30;;;20.30;44.20;;;;;;5052701;28;20029;-45
2020/12/19 06:59:28;;;;;;;0.50;0.20;;;20.30;44.20;;;;;;5033223;28;20485;-42
2020/12/19 07:02:16;;;;;;;0.47;0.20;;;20.30;44.30;;;;;;5049529;28;20017;-43
2020/12/19 07:04:41;;;;;;;0.68;0.30;;;20.30;44.20;;;;;;5049263;28;20025;-45
2020/12/19 07:07:24;;;;;;;0.70;0.32;;;20.30;44.20;;;;;;5051487;28;20106;-46
2020/12/19 07:09:58;;;;;;;0.52;0.20;;;20.30;44.20;;;;;;5051804;28;20098;-46
2020/12/19 07:12:29;;;;;;;0.95;0.20;;;20.30;44.20;;;;;;5044832;28;20101;-44
2020/12/19 07:14:54;;;;;;;1.37;0.30;;;20.30;44.20;;;;;;5033542;28;20114;-45
2020/12/19 07:17:20;;;;;;;0.50;0.28;;;20.20;44.20;;;;;;5053599;28;20454;-47
2020/12/19 07:19:46;;;;;;;0.50;0.30;;;20.30;44.30;;;;;;5052852;28;20048;-47
2020/12/19 07:22:12;;;;;;;0.40;0.20;;;20.30;44.30;;;;;;5043671;28;20056;-45
2020/12/19 07:24:39;;;;;;;0.70;0.30;;;20.30;44.30;;;;;;5048809;28;20437;-46
2020/12/19 07:27:04;;;;;;;0.73;0.30;;;20.30;44.30;;;;;;5042662;28;20040;-44
2020/12/19 07:29:30;;;;;;;0.43;0.30;;;20.20;44.40;;;;;;5051039;28;20028;-48
2020/12/19 07:31:59;;;;;;;0.60;0.20;;;20.20;44.40;;;;;;5051475;28;20526;-46
2020/12/19 07:34:25;;;;;;;1.15;0.40;;;20.20;44.60;;;;;;5052738;28;20047;-43
2020/12/19 07:36:53;;;;;;;1.17;0.30;;;20.20;44.90;;;;;;5050463;28;20028;-44
2020/12/19 07:39:20;;;;;;;1.42;0.38;;;20.20;45.60;;;;;;5031895;28;20033;-44
2020/12/19 07:42:03;;;;;;;1.63;0.25;;;20.20;45.10;;;;;;5030111;28;20381;-46
2020/12/19 07:44:28;;;;;;;0.45;0.20;;;20.20;45.00;;;;;;5037510;28;20021;-42
2020/12/19 07:47:05;;;;;;;0.70;0.40;;;20.20;44.90;;;;;;5044806;28;20035;-43
2020/12/19 07:49:34;;;;;;;2.15;0.40;;;20.20;44.90;;;;;;5040067;28;20077;-47
2020/12/19 07:52:07;;;;;;;1.05;0.50;;;20.20;44.70;;;;;;5048964;28;20684;-45
2020/12/19 07:54:34;;;;;;;1.17;0.30;;;20.20;44.70;;;;;;5049547;28;20449;-48
2020/12/19 07:57:00;;;;;;;0.70;0.20;;;20.20;44.70;;;;;;5047286;28;20615;-43
2020/12/19 07:59:26;;;;;;;1.02;0.45;;;20.20;44.70;;;;;;5045262;28;20037;-43
2020/12/19 08:01:53;;;;;;;0.80;0.32;;;20.20;44.60;;;;;;5049005;28;20024;-46
2020/12/19 08:04:19;;;;;;;1.50;0.50;;;20.20;44.60;;;;;;5047351;28;20104;-43
2020/12/19 08:06:47;;;;;;;0.80;0.30;;;20.20;44.70;;;;;;5044164;28;20220;-44
2020/12/19 08:09:20;;;;;;;1.05;0.60;;;20.20;44.40;;;;;;5039476;28;20028;-47
2020/12/19 08:11:48;;;;;;;0.70;0.40;;;20.20;44.40;;;;;;5047084;28;20033;-47
2020/12/19 08:14:18;;;;;;;0.70;0.40;;;20.20;44.40;;;;;;5049342;28;20035;-44
2020/12/19 08:16:44;;;;;;;0.85;0.40;;;20.20;44.30;;;;;;5048180;28;20482;-47
2020/12/19 08:19:12;;;;;;;1.45;0.50;;;20.20;44.80;;;;;;5032259;28;20096;-46
2020/12/19 08:21:39;;;;;;;1.02;0.40;;;20.20;44.20;;;;;;5045026;28;20120;-47
2020/12/19 08:24:05;;;;;;;0.98;0.40;;;20.20;44.70;;;;;;5045533;28;20028;-46
2020/12/19 08:26:32;;;;;;;1.35;0.50;;;20.30;44.10;;;;;;5049030;28;20066;-45
2020/12/19 08:29:06;;;;;;;1.75;0.40;;;20.30;44.10;;;;;;5046037;28;20022;-48
2020/12/19 08:31:36;;;;;;;0.80;0.40;;;20.30;44.00;;;;;;5031371;28;20037;-45
2020/12/19 08:34:12;;;;;;;1.13;0.60;;;20.30;43.90;;;;;;5047098;28;20029;-47
2020/12/19 08:36:46;;;;;;;1.10;0.60;;;20.30;43.80;;;;;;5049121;28;20033;-46
2020/12/19 08:39:16;;;;;;;0.98;0.57;;;20.40;43.80;;;;;;5046504;28;20032;-45
2020/12/19 08:41:42;;;;;;;1.55;0.73;;;20.40;43.70;;;;;;5042533;28;20037;-43
2020/12/19 08:44:24;;;;;;;0.68;0.40;;;20.40;43.70;;;;;;5035700;28;20469;-44
2020/12/19 08:47:04;;;;;;;1.17;0.50;;;20.40;43.70;;;;;;5042706;28;20246;-47
2020/12/19 08:49:30;;;;;;;0.80;0.50;;;20.40;43.60;;;;;;5042477;28;20068;-47
2020/12/19 08:51:56;;;;;;;1.17;0.40;;;20.40;43.60;;;;;;5040162;28;20675;-46
2020/12/19 08:54:22;;;;;;;1.75;0.73;;;20.40;43.60;;;;;;5040476;28;20036;-48
2020/12/19 08:56:52;;;;;;;0.98;0.52;;;20.40;43.60;;;;;;5020092;28;20025;-46
2020/12/19 08:59:25;;;;;;;1.35;0.70;;;20.40;43.60;;;;;;5039473;28;20028;-46
2020/12/19 09:01:55;;;;;;;0.98;0.55;;;20.40;43.60;;;;;;5039986;28;20032;-47
2020/12/19 09:04:21;;;;;;;0.77;0.60;;;20.40;43.60;;;;;;5040709;28;20027;-45
2020/12/19 09:06:53;;;;;;;1.15;0.80;;;20.40;43.50;;;;;;5023657;28;20378;-44
2020/12/19 09:09:19;;;;;;;;;;;20.50;43.60;;;;;;5047617;28;20043;-43
2020/12/19 09:11:44;;;;;;;0.80;0.60;;;20.50;43.60;;;;;;5048722;28;19912;-47
2020/12/19 09:14:12;;;;;;;1.30;0.70;;;20.50;43.60;;;;;;5047665;28;20026;-42
2020/12/19 09:16:53;;;;;;;1.20;0.65;;;20.50;43.60;;;;;;5044092;28;20059;-50
2020/12/19 09:19:19;;;;;;;1.13;0.50;;;20.50;43.60;;;;;;5046271;28;20366;-47
2020/12/19 09:21:55;;;;;;;1.10;0.80;;;20.50;43.60;;;;;;5041622;28;20067;-44
2020/12/19 09:24:22;;;;;;;1.02;0.77;;;20.50;43.60;;;;;;5039684;28;20116;-45
2020/12/19 09:26:47;;;;;;;2.53;0.80;;;20.50;43.60;;;;;;5041625;28;20104;-45
2020/12/19 09:29:13;;;;;;;1.52;0.85;;;20.50;43.60;;;;;;5046693;28;20100;-44
2020/12/19 09:31:39;;;;;;;1.02;0.70;;;20.50;43.60;;;;;;5042984;28;20029;-49
2020/12/19 09:34:04;;;;;;;3.20;0.88;;;20.50;43.60;;;;;;5039862;28;20025;-46
2020/12/19 09:36:30;;;;;;;2.53;0.70;;;20.50;43.70;;;;;;5043265;28;20524;-46
2020/12/19 09:38:55;;;;;;;1.10;0.93;;;20.50;43.60;;;;;;5044053;28;20027;-45
2020/12/19 09:41:21;;;;;;;1.02;0.65;;;20.50;44.20;;;;;;5045825;28;20036;-48
2020/12/19 09:43:46;;;;;;;1.48;0.82;;;20.50;43.80;;;;;;5046027;28;20029;-45
2020/12/19 09:46:15;;;;;;;3.42;0.60;;;20.50;43.60;;;;;;5024550;28;20021;-50
2020/12/19 09:48:41;;;;;;;1.77;0.88;;;20.50;43.70;;;;;;5041380;28;20470;-48
2020/12/19 09:51:07;;;;;;;1.25;0.68;;;20.50;43.70;;;;;;5046033;28;20127;-47
2020/12/19 09:53:34;;;;;;;1.55;0.93;;;20.60;43.70;;;;;;5048511;28;20083;-47
2020/12/19 09:56:00;;;;;;;1.95;1.30;;;20.60;44.20;;;;;;5047248;28;20040;-48
2020/12/19 09:58:25;;;;;;;2.22;1.27;;;20.50;43.60;;;;;;5045458;28;20041;-46
2020/12/19 10:00:51;;;;;;;2.22;1.60;;;20.60;43.70;;;;;;5046404;28;20025;-46
2020/12/19 10:03:17;;;;;;;2.25;1.35;;;20.60;43.70;;;;;;5045812;28;20087;-49
2020/12/19 10:05:43;;;;;;;1.50;1.30;;;20.60;43.70;;;;;;5046321;28;20021;-46
2020/12/19 10:08:08;;;;;;;3.60;1.27;;;20.60;43.60;;;;;;5046759;28;20104;-47
2020/12/19 10:10:37;;;;;;;3.00;1.23;;;20.60;43.60;;;;;;5043684;28;20628;-46
2020/12/19 10:13:03;;;;;;;3.70;1.45;;;20.60;43.70;;;;;;5041852;28;20033;-46
2020/12/19 10:15:28;;;;;;;1.50;1.20;;;20.60;43.60;;;;;;5046699;28;20032;-49
2020/12/19 10:17:54;;;;;;;1.95;1.33;;;20.70;43.70;;;;;;5045824;28;20033;-47
2020/12/19 10:20:20;;;;;;;2.00;1.40;;;20.70;43.70;;;;;;5044658;28;20072;-47
2020/12/19 10:22:47;;;;;;;1.40;0.93;;;20.80;43.50;;;;;;5045962;28;20052;-49
2020/12/19 10:25:12;;;;;;;2.08;0.88;;;21.00;43.20;;;;;;5047005;28;20024;-46
2020/12/19 10:27:39;;;;;;;1.10;0.65;;;21.10;42.90;;;;;;5046894;28;20627;-45
2020/12/19 10:30:04;;;;;;;1.63;0.90;;;21.10;42.80;;;;;;5017359;28;20031;-45
2020/12/19 10:32:30;;;;;;;1.33;0.68;;;21.20;43.30;;;;;;5046467;28;20580;-47
2020/12/19 10:34:56;;;;;;;1.40;0.65;;;21.30;42.80;;;;;;5047091;28;20029;-47
2020/12/19 10:37:22;;;;;;;0.93;0.73;;;21.40;42.70;;;;;;5046997;28;20104;-47
2020/12/19 10:39:47;;;;;;;1.50;0.82;;;21.40;42.60;;;;;;5046622;28;20060;-49
2020/12/19 10:42:13;;;;;;;1.13;0.82;;;21.40;42.60;;;;;;5027503;28;20017;-47
2020/12/19 10:44:38;;;;;;;1.83;0.85;;;21.40;42.60;;;;;;5044438;28;20026;-47
2020/12/19 10:47:04;;;;;;;1.35;0.85;;;21.50;42.60;;;;;;5043840;28;20488;-44
2020/12/19 10:49:30;;;;;;;1.25;0.68;;;21.50;42.60;;;;;;5047493;28;20044;-48
2020/12/19 10:51:56;;;;;;;2.13;0.68;;;21.50;42.60;;;;;;5047701;28;20040;-49
2020/12/19 10:54:22;;;;;;;1.38;0.77;;;21.50;42.70;;;;;;5048502;28;20025;-45
2020/12/19 10:56:47;;;;;;;2.00;0.80;;;21.50;42.70;;;;;;5045583;28;20481;-46
2020/12/19 10:59:13;;;;;;;1.42;0.60;;;21.50;42.70;;;;;;5047673;28;20053;-45
2020/12/19 11:01:39;;;;;;;0.98;0.80;;;21.50;42.80;;;;;;5046234;28;20029;-50
2020/12/19 11:04:04;;;;;;;1.27;0.70;;;21.50;42.80;;;;;;5047364;28;20022;-48
2020/12/19 11:06:30;;;;;;;1.63;0.68;;;21.50;42.80;;;;;;5046519;28;20100;-45
2020/12/19 11:08:55;;;;;;;1.30;0.65;;;21.50;42.80;;;;;;5047632;28;20060;-46
2020/12/19 11:11:21;;;;;;;1.17;0.85;;;21.50;42.90;;;;;;5045783;28;20505;-46
2020/12/19 11:13:49;;;;;;;1.27;0.65;;;21.40;42.90;;;;;;5050666;28;20033;-47
2020/12/19 11:16:25;;;;;;;1.25;0.60;;;21.40;42.90;;;;;;5050603;28;20204;-47
2020/12/19 11:18:51;;;;;;;1.10;0.80;;;21.40;42.90;;;;;;5033171;28;20071;-45
2020/12/19 11:21:18;;;;;;;1.42;0.77;;;21.50;42.90;;;;;;5048389;28;20021;-44
2020/12/19 11:23:43;;;;;;;0.73;0.43;;;21.50;42.90;;;;;;5042002;28;20051;-45
2020/12/19 11:26:09;;;;;;;1.63;0.70;;;21.50;42.90;;;;;;5041375;28;20470;-46
2020/12/19 11:28:36;;;;;;;1.60;0.70;;;21.50;42.90;;;;;;5050034;28;20025;-43
2020/12/19 11:31:01;;;;;;;0.90;0.40;;;21.50;42.90;;;;;;5048399;28;20519;-48
2020/12/19 11:33:27;;;;;;;1.38;0.60;;;21.50;42.90;;;;;;5037510;28;20044;-46
2020/12/19 11:35:52;;;;;;;0.75;0.45;;;21.50;42.90;;;;;;5047392;28;20029;-46
2020/12/19 11:38:18;;;;;;;1.45;0.73;;;21.50;42.90;;;;;;5049762;28;20037;-48
2020/12/19 11:40:43;;;;;;;0.85;0.50;;;21.50;42.90;;;;;;5049642;28;20035;-45
2020/12/19 11:43:09;;;;;;;1.77;0.57;;;21.40;42.90;;;;;;5028149;28;20032;-46
2020/12/19 11:45:35;;;;;;;1.15;0.75;;;21.40;43.00;;;;;;5037610;28;20078;-48
2020/12/19 11:48:00;;;;;;;0.70;0.50;;;21.50;43.10;;;;;;5041460;28;20040;-50
2020/12/19 11:50:26;;;;;;;0.80;0.50;;;21.40;43.00;;;;;;5041228;28;20017;-48
2020/12/19 11:52:51;;;;;;;0.65;0.40;;;21.40;43.10;;;;;;5048440;28;20033;-47
2020/12/19 11:55:17;;;;;;;1.30;0.68;;;21.40;43.00;;;;;;5048577;28;20078;-48
2020/12/19 11:57:42;;;;;;;1.10;0.40;;;21.40;43.10;;;;;;5029102;28;20111;-42
2020/12/19 12:00:08;;;;;;;1.15;0.50;;;21.40;43.10;;;;;;5050282;28;20029;-49
2020/12/19 12:02:34;;;;;;;1.15;0.57;;;21.40;43.10;;;;;;5045409;28;20128;-50
2020/12/19 12:04:59;;;;;;;0.75;0.35;;;21.40;43.20;;;;;;5031187;28;20025;-44
2020/12/19 12:07:25;;;;;;;1.10;0.70;;;21.40;43.20;;;;;;5048389;28;20100;-46
2020/12/19 12:09:51;;;;;;;1.70;0.52;;;21.30;43.20;;;;;;5049995;28;20083;-47
2020/12/19 12:12:17;;;;;;;0.82;0.50;;;21.30;43.20;;;;;;5031862;28;20020;-45
2020/12/19 12:14:42;;;;;;;0.88;0.40;;;21.30;43.40;;;;;;5030143;28;20132;-44
2020/12/19 12:17:08;;;;;;;0.65;0.40;;;21.30;43.30;;;;;;5049113;28;20017;-43
2020/12/19 12:19:34;;;;;;;1.08;0.60;;;21.30;43.40;;;;;;5027163;28;20029;-49
2020/12/19 12:21:59;;;;;;;1.25;0.60;;;21.30;43.50;;;;;;5036753;28;20020;-46
2020/12/19 12:24:25;;;;;;;0.93;0.60;;;21.30;43.40;;;;;;5048963;28;20084;-48
2020/12/19 12:26:50;;;;;;;0.82;0.43;;;21.30;43.40;;;;;;5047219;28;20099;-46
2020/12/19 12:29:16;;;;;;;1.10;0.60;;;21.30;43.50;;;;;;5049002;28;20028;-45
2020/12/19 12:31:42;;;;;;;0.98;0.60;;;21.20;43.40;;;;;;5049131;28;20017;-46
2020/12/19 12:34:08;;;;;;;0.80;0.50;;;21.20;43.50;;;;;;5047118;28;20028;-47
2020/12/19 12:36:36;;;;;;;1.77;0.50;;;21.20;43.40;;;;;;5021750;28;20025;-43
2020/12/19 12:39:02;;;;;;;0.90;0.65;;;21.20;43.50;;;;;;5034585;28;20044;-41
2020/12/19 12:41:27;;;;;;;1.27;0.47;;;21.20;43.50;;;;;;5048634;28;20036;-44
2020/12/19 12:43:53;;;;;;;1.10;0.55;;;21.20;43.60;;;;;;5047687;28;20032;-45
2020/12/19 12:46:19;;;;;;;0.85;0.50;;;21.20;43.60;;;;;;5030732;28;20021;-49
2020/12/19 12:48:46;;;;;;;1.42;0.60;;;21.20;43.50;;;;;;5029899;28;20108;-47